sensor_id;sensor_type;location;lat;lon;timestamp;pressure;altitude;pressure_sealevel;temperature;humidity
70833;BME280;58452;59.418;17.962;2022-08-19T00:01:47;101246.03;;;20.66;77.30
70833;BME280;58452;59.418;17.962;2022-08-19T00:04:15;101248.88;;;20.64;77.57
70833;BME280;58452;59.418;17.962;2022-08-19T00:06:42;101245.25;;;20.65;77.66
70833;BME280;58452;59.418;17.962;2022-08-19T00:09:10;101246.66;;;20.68;77.43
70833;BME280;58452;59.418;17.962;2022-08-19T00:11:36;101250.53;;;20.72;77.33
70833;BME280;58452;59.418;17.962;2022-08-19T00:14:04;101245.88;;;20.74;77.40
70833;BME280;58452;59.418;17.962;2022-08-19T00:16:29;101245.88;;;20.74;77.72
70833;BME280;58452;59.418;17.962;2022-08-19T00:18:55;101242.25;;;20.75;78.02
70833;BME280;58452;59.418;17.962;2022-08-19T00:21:21;101236.63;;;20.78;77.73
70833;BME280;58452;59.418;17.962;2022-08-19T00:23:47;101241.47;;;20.81;77.93
70833;BME280;58452;59.418;17.962;2022-08-19T00:26:13;101250.56;;;20.85;77.78
70833;BME280;58452;59.418;17.962;2022-08-19T00:28:39;101247.34;;;20.83;78.19
70833;BME280;58452;59.418;17.962;2022-08-19T00:31:07;101249.97;;;20.83;78.12
70833;BME280;58452;59.418;17.962;2022-08-19T00:33:32;101251.59;;;20.84;78.34
70833;BME280;58452;59.418;17.962;2022-08-19T00:35:59;101252.34;;;20.78;78.38
70833;BME280;58452;59.418;17.962;2022-08-19T00:38:25;101247.53;;;20.81;78.53
70833;BME280;58452;59.418;17.962;2022-08-19T00:40:50;101246.13;;;20.85;78.40
70833;BME280;58452;59.418;17.962;2022-08-19T00:43:20;101239.88;;;20.80;79.17
70833;BME280;58452;59.418;17.962;2022-08-19T00:45:46;101239.47;;;20.83;79.03
70833;BME280;58452;59.418;17.962;2022-08-19T00:48:13;101231.19;;;20.86;78.88
70833;BME280;58452;59.418;17.962;2022-08-19T00:50:40;101233.44;;;20.89;78.86
70833;BME280;58452;59.418;17.962;2022-08-19T00:53:09;101232.22;;;20.91;78.95
70833;BME280;58452;59.418;17.962;2022-08-19T00:55:35;101225.78;;;20.94;78.72
70833;BME280;58452;59.418;17.962;2022-08-19T00:58:05;101226.38;;;20.96;78.81
70833;BME280;58452;59.418;17.962;2022-08-19T01:00:32;101228.00;;;20.97;78.99
70833;BME280;58452;59.418;17.962;2022-08-19T01:03:02;101229.41;;;21.00;78.80
70833;BME280;58452;59.418;17.962;2022-08-19T01:05:28;101228.25;;;21.02;78.77
70833;BME280;58452;59.418;17.962;2022-08-19T01:07:56;101221.97;;;21.03;78.77
70833;BME280;58452;59.418;17.962;2022-08-19T01:10:26;101225.00;;;21.07;78.73
70833;BME280;58452;59.418;17.962;2022-08-19T01:12:52;101231.69;;;21.09;78.81
70833;BME280;58452;59.418;17.962;2022-08-19T01:15:23;101230.66;;;21.10;78.84
70833;BME280;58452;59.418;17.962;2022-08-19T01:17:52;101226.25;;;21.11;78.91
70833;BME280;58452;59.418;17.962;2022-08-19T01:20:20;101226.88;;;21.13;78.60
70833;BME280;58452;59.418;17.962;2022-08-19T01:22:53;101228.28;;;21.15;78.62
70833;BME280;58452;59.418;17.962;2022-08-19T01:25:21;101220.41;;;21.15;78.48
70833;BME280;58452;59.418;17.962;2022-08-19T01:27:49;101221.00;;;21.17;78.59
70833;BME280;58452;59.418;17.962;2022-08-19T01:30:20;101215.38;;;21.20;78.53
70833;BME280;58452;59.418;17.962;2022-08-19T01:32:48;101219.81;;;21.20;78.65
70833;BME280;58452;59.418;17.962;2022-08-19T01:35:14;101212.75;;;21.20;78.61
70833;BME280;58452;59.418;17.962;2022-08-19T01:37:58;101210.53;;;21.24;78.47
70833;BME280;58452;59.418;17.962;2022-08-19T01:40:27;101212.94;;;21.25;78.64
70833;BME280;58452;59.418;17.962;2022-08-19T01:42:53;101208.69;;;21.24;78.35
70833;BME280;58452;59.418;17.962;2022-08-19T01:45:20;101215.41;;;21.27;78.33
70833;BME280;58452;59.418;17.962;2022-08-19T01:47:46;101221.06;;;21.30;77.96
70833;BME280;58452;59.418;17.962;2022-08-19T01:50:12;101220.06;;;21.31;77.95
70833;BME280;58452;59.418;17.962;2022-08-19T01:52:40;101215.41;;;21.33;77.68
70833;BME280;58452;59.418;17.962;2022-08-19T01:55:08;101220.25;;;21.36;77.61
70833;BME280;58452;59.418;17.962;2022-08-19T01:57:34;101222.69;;;21.38;77.61
70833;BME280;58452;59.418;17.962;2022-08-19T02:00:00;101218.25;;;21.38;77.96
70833;BME280;58452;59.418;17.962;2022-08-19T02:02:28;101205.72;;;21.40;77.56
70833;BME280;58452;59.418;17.962;2022-08-19T02:04:53;101219.25;;;21.37;77.64
70833;BME280;58452;59.418;17.962;2022-08-19T02:07:20;101219.84;;;21.39;77.99
70833;BME280;58452;59.418;17.962;2022-08-19T02:09:47;101216.22;;;21.40;77.43
70833;BME280;58452;59.418;17.962;2022-08-19T02:12:13;101211.59;;;21.42;77.52
70833;BME280;58452;59.418;17.962;2022-08-19T02:14:40;101217.84;;;21.35;77.90
70833;BME280;58452;59.418;17.962;2022-08-19T02:17:06;101208.75;;;21.37;77.83
70833;BME280;58452;59.418;17.962;2022-08-19T02:19:31;101210.16;;;21.40;78.02
70833;BME280;58452;59.418;17.962;2022-08-19T02:21:58;101205.72;;;21.40;77.86
70833;BME280;58452;59.418;17.962;2022-08-19T02:24:24;101207.34;;;21.41;77.70
70833;BME280;58452;59.418;17.962;2022-08-19T02:26:49;101210.56;;;21.37;77.98
70833;BME280;58452;59.418;17.962;2022-08-19T02:29:15;101209.75;;;21.36;78.00
70833;BME280;58452;59.418;17.962;2022-08-19T02:31:40;101217.63;;;21.36;77.58
70833;BME280;58452;59.418;17.962;2022-08-19T02:34:05;101210.38;;;21.38;77.85
70833;BME280;58452;59.418;17.962;2022-08-19T02:36:31;101211.78;;;21.34;77.86
70833;BME280;58452;59.418;17.962;2022-08-19T02:38:56;101214.59;;;21.39;77.83
70833;BME280;58452;59.418;17.962;2022-08-19T02:41:25;101213.59;;;21.40;77.97
70833;BME280;58452;59.418;17.962;2022-08-19T02:43:50;101211.59;;;21.42;77.80
70833;BME280;58452;59.418;17.962;2022-08-19T02:46:23;101213.00;;;21.45;77.63
70833;BME280;58452;59.418;17.962;2022-08-19T02:48:51;101209.56;;;21.44;77.66
70833;BME280;58452;59.418;17.962;2022-08-19T02:51:19;101204.31;;;21.44;77.77
70833;BME280;58452;59.418;17.962;2022-08-19T02:53:46;101209.56;;;21.44;77.81
70833;BME280;58452;59.418;17.962;2022-08-19T02:56:11;101204.31;;;21.44;77.56
70833;BME280;58452;59.418;17.962;2022-08-19T02:58:37;101205.72;;;21.47;77.79
70833;BME280;58452;59.418;17.962;2022-08-19T03:01:02;101202.88;;;21.49;77.48
70833;BME280;58452;59.418;17.962;2022-08-19T03:03:28;101202.06;;;21.48;77.59
70833;BME280;58452;59.418;17.962;2022-08-19T03:06:14;101206.09;;;21.51;77.61
70833;BME280;58452;59.418;17.962;2022-08-19T03:08:44;101214.00;;;21.51;77.37
70833;BME280;58452;59.418;17.962;2022-08-19T03:11:19;101215.81;;;21.50;77.40
70833;BME280;58452;59.418;17.962;2022-08-19T03:13:48;101212.41;;;21.50;77.64
70833;BME280;58452;59.418;17.962;2022-08-19T03:16:16;101220.66;;;21.47;77.58
70833;BME280;58452;59.418;17.962;2022-08-19T03:18:42;101219.06;;;21.46;77.64
70833;BME280;58452;59.418;17.962;2022-08-19T03:21:08;101222.66;;;21.25;78.66
70833;BME280;58452;59.418;17.962;2022-08-19T03:23:35;101215.41;;;21.33;78.51
70833;BME280;58452;59.418;17.962;2022-08-19T03:26:04;101223.50;;;21.38;78.38
70833;BME280;58452;59.418;17.962;2022-08-19T03:28:30;101219.66;;;21.41;77.99
70833;BME280;58452;59.418;17.962;2022-08-19T03:31:02;101215.41;;;21.40;78.17
70833;BME280;58452;59.418;17.962;2022-08-19T03:33:29;101224.72;;;21.42;78.28
70833;BME280;58452;59.418;17.962;2022-08-19T03:36:11;101222.69;;;21.44;78.15
70833;BME280;58452;59.418;17.962;2022-08-19T03:38:47;101225.13;;;21.46;78.16
70833;BME280;58452;59.418;17.962;2022-08-19T03:41:18;101229.56;;;21.46;77.88
70833;BME280;58452;59.418;17.962;2022-08-19T03:43:44;101234.00;;;21.45;77.99
70833;BME280;58452;59.418;17.962;2022-08-19T03:46:16;101227.53;;;21.48;78.10
70833;BME280;58452;59.418;17.962;2022-08-19T03:48:43;101228.34;;;21.48;77.69
70833;BME280;58452;59.418;17.962;2022-08-19T03:53:48;101230.78;;;21.50;77.71
70833;BME280;58452;59.418;17.962;2022-08-19T03:56:14;101230.75;;;21.36;78.24
70833;BME280;58452;59.418;17.962;2022-08-19T03:58:40;101226.91;;;21.26;78.72
70833;BME280;58452;59.418;17.962;2022-08-19T04:01:15;101227.13;;;21.31;78.47
70833;BME280;58452;59.418;17.962;2022-08-19T04:03:41;101235.41;;;21.34;78.32
70833;BME280;58452;59.418;17.962;2022-08-19T04:06:13;101239.63;;;21.35;78.34
70833;BME280;58452;59.418;17.962;2022-08-19T04:08:40;101238.03;;;21.34;78.32
70833;BME280;58452;59.418;17.962;2022-08-19T04:11:14;101242.88;;;21.37;78.24
70833;BME280;58452;59.418;17.962;2022-08-19T04:13:40;101240.03;;;21.39;78.49
70833;BME280;58452;59.418;17.962;2022-08-19T04:16:09;101245.72;;;21.42;78.25
70833;BME280;58452;59.418;17.962;2022-08-19T04:18:36;101236.81;;;21.43;78.33
70833;BME280;58452;59.418;17.962;2022-08-19T04:21:02;101242.06;;;21.43;78.18
70833;BME280;58452;59.418;17.962;2022-08-19T04:23:28;101245.31;;;21.46;78.31
70833;BME280;58452;59.418;17.962;2022-08-19T04:25:54;101247.31;;;21.43;78.00
70833;BME280;58452;59.418;17.962;2022-08-19T04:28:20;101249.75;;;21.45;78.16
70833;BME280;58452;59.418;17.962;2022-08-19T04:30:49;101250.16;;;21.49;77.96
70833;BME280;58452;59.418;17.962;2022-08-19T04:33:19;101245.31;;;21.46;77.94
70833;BME280;58452;59.418;17.962;2022-08-19T04:35:48;101250.97;;;21.42;78.17
70833;BME280;58452;59.418;17.962;2022-08-19T04:38:15;101249.75;;;21.38;78.58
70833;BME280;58452;59.418;17.962;2022-08-19T04:40:43;101253.78;;;21.34;78.57
70833;BME280;58452;59.418;17.962;2022-08-19T04:43:28;101255.38;;;21.35;78.73
70833;BME280;58452;59.418;17.962;2022-08-19T04:45:53;101253.16;;;21.39;78.52
70833;BME280;58452;59.418;17.962;2022-08-19T04:48:19;101263.06;;;21.24;79.32
70833;BME280;58452;59.418;17.962;2022-08-19T04:50:51;101259.44;;;21.31;79.14
70833;BME280;58452;59.418;17.962;2022-08-19T04:53:21;101261.84;;;21.39;78.86
70833;BME280;58452;59.418;17.962;2022-08-19T04:55:47;101260.28;;;21.45;78.45
70833;BME280;58452;59.418;17.962;2022-08-19T04:58:12;101255.41;;;21.49;78.33
70833;BME280;58452;59.418;17.962;2022-08-19T05:00:39;101250.56;;;21.52;77.94
70833;BME280;58452;59.418;17.962;2022-08-19T05:03:05;101252.59;;;21.57;77.96
70833;BME280;58452;59.418;17.962;2022-08-19T05:05:30;101244.31;;;21.60;77.83
70833;BME280;58452;59.418;17.962;2022-08-19T05:07:56;101243.09;;;21.62;77.82
70833;BME280;58452;59.418;17.962;2022-08-19T05:10:21;101244.50;;;21.65;77.50
70833;BME280;58452;59.418;17.962;2022-08-19T05:12:47;101241.50;;;21.68;77.38
70833;BME280;58452;59.418;17.962;2022-08-19T05:15:12;101239.28;;;21.71;77.53
70833;BME280;58452;59.418;17.962;2022-08-19T05:17:37;101238.88;;;21.74;77.36
70833;BME280;58452;59.418;17.962;2022-08-19T05:20:05;101237.66;;;21.77;77.17
70833;BME280;58452;59.418;17.962;2022-08-19T05:22:49;101236.22;;;21.81;77.40
70833;BME280;58452;59.418;17.962;2022-08-19T05:25:18;101237.63;;;21.83;77.32
70833;BME280;58452;59.418;17.962;2022-08-19T05:27:44;101232.00;;;21.73;76.93
70833;BME280;58452;59.418;17.962;2022-08-19T05:30:11;101237.25;;;21.80;76.81
70833;BME280;58452;59.418;17.962;2022-08-19T05:32:37;101244.53;;;21.84;77.07
70833;BME280;58452;59.418;17.962;2022-08-19T05:35:04;101234.41;;;21.88;76.90
70833;BME280;58452;59.418;17.962;2022-08-19T05:37:30;101230.16;;;21.87;76.85
70833;BME280;58452;59.418;17.962;2022-08-19T05:39:55;101230.78;;;21.89;77.11
70833;BME280;58452;59.418;17.962;2022-08-19T05:42:21;101239.69;;;21.95;76.63
70833;BME280;58452;59.418;17.962;2022-08-19T05:44:48;101239.91;;;21.93;77.06
70833;BME280;58452;59.418;17.962;2022-08-19T05:47:14;101237.28;;;21.93;77.14
70833;BME280;58452;59.418;17.962;2022-08-19T05:49:40;101232.41;;;21.97;76.52
70833;BME280;58452;59.418;17.962;2022-08-19T05:52:08;101227.56;;;22.00;76.80
70833;BME280;58452;59.418;17.962;2022-08-19T05:54:34;101232.41;;;22.03;76.71
70833;BME280;58452;59.418;17.962;2022-08-19T05:57:01;101233.63;;;22.07;76.81
70833;BME280;58452;59.418;17.962;2022-08-19T05:59:27;101233.00;;;22.12;76.53
70833;BME280;58452;59.418;17.962;2022-08-19T06:01:53;101236.03;;;22.15;76.18
70833;BME280;58452;59.418;17.962;2022-08-19T06:04:20;101236.63;;;22.17;76.64
70833;BME280;58452;59.418;17.962;2022-08-19T06:06:48;101235.22;;;22.21;76.57
70833;BME280;58452;59.418;17.962;2022-08-19T06:09:14;101231.56;;;22.22;75.85
70833;BME280;58452;59.418;17.962;2022-08-19T06:11:43;101231.16;;;22.25;75.75
70833;BME280;58452;59.418;17.962;2022-08-19T06:14:19;101225.47;;;22.28;75.67
70833;BME280;58452;59.418;17.962;2022-08-19T06:16:46;101226.69;;;22.32;75.77
70833;BME280;58452;59.418;17.962;2022-08-19T06:19:17;101221.63;;;22.37;75.64
70833;BME280;58452;59.418;17.962;2022-08-19T06:21:45;101226.66;;;22.39;76.02
70833;BME280;58452;59.418;17.962;2022-08-19T06:24:13;101220.41;;;22.40;75.89
70833;BME280;58452;59.418;17.962;2022-08-19T06:26:45;101223.22;;;22.45;75.89
70833;BME280;58452;59.418;17.962;2022-08-19T06:29:13;101223.00;;;22.47;75.42
70833;BME280;58452;59.418;17.962;2022-08-19T06:31:42;101224.59;;;22.54;75.57
70833;BME280;58452;59.418;17.962;2022-08-19T06:34:08;101224.56;;;22.61;75.67
70833;BME280;58452;59.418;17.962;2022-08-19T06:36:36;101227.00;;;22.69;74.84
70833;BME280;58452;59.418;17.962;2022-08-19T06:39:08;101234.66;;;22.77;74.06
70833;BME280;58452;59.418;17.962;2022-08-19T06:41:36;101228.16;;;22.79;74.34
70833;BME280;58452;59.418;17.962;2022-08-19T06:44:02;101235.00;;;22.87;74.36
70833;BME280;58452;59.418;17.962;2022-08-19T06:46:28;101237.59;;;22.94;73.95
70833;BME280;58452;59.418;17.962;2022-08-19T06:48:54;101235.97;;;22.99;74.00
70833;BME280;58452;59.418;17.962;2022-08-19T06:51:20;101243.41;;;23.09;73.44
70833;BME280;58452;59.418;17.962;2022-08-19T06:53:47;101242.34;;;23.16;73.21
70833;BME280;58452;59.418;17.962;2022-08-19T06:56:16;101249.00;;;23.25;72.96
70833;BME280;58452;59.418;17.962;2022-08-19T06:58:42;101240.81;;;23.33;72.85
70833;BME280;58452;59.418;17.962;2022-08-19T07:01:08;101235.41;;;23.28;72.14
70833;BME280;58452;59.418;17.962;2022-08-19T07:03:36;101235.97;;;23.30;71.66
70833;BME280;58452;59.418;17.962;2022-08-19T07:06:06;101248.50;;;23.42;71.17
70833;BME280;58452;59.418;17.962;2022-08-19T07:08:33;101246.41;;;23.50;71.39
70833;BME280;58452;59.418;17.962;2022-08-19T07:10:59;101236.19;;;23.60;71.52
70833;BME280;58452;59.418;17.962;2022-08-19T07:13:25;101242.59;;;23.71;71.22
70833;BME280;58452;59.418;17.962;2022-08-19T07:15:51;101239.25;;;23.82;70.91
70833;BME280;58452;59.418;17.962;2022-08-19T07:18:20;101245.88;;;23.91;70.35
70833;BME280;58452;59.418;17.962;2022-08-19T07:20:46;101248.25;;;23.99;69.97
70833;BME280;58452;59.418;17.962;2022-08-19T07:23:12;101241.09;;;24.06;69.51
70833;BME280;58452;59.418;17.962;2022-08-19T07:25:37;101240.66;;;24.09;69.71
70833;BME280;58452;59.418;17.962;2022-08-19T07:28:04;101245.44;;;24.19;69.61
70833;BME280;58452;59.418;17.962;2022-08-19T07:30:30;101247.00;;;24.26;69.00
70833;BME280;58452;59.418;17.962;2022-08-19T07:32:55;101243.06;;;24.36;69.18
70833;BME280;58452;59.418;17.962;2022-08-19T07:35:22;101248.44;;;24.41;68.88
70833;BME280;58452;59.418;17.962;2022-08-19T07:37:49;101249.19;;;24.48;69.01
70833;BME280;58452;59.418;17.962;2022-08-19T07:40:15;101249.91;;;24.55;68.88
70833;BME280;58452;59.418;17.962;2022-08-19T07:42:41;101245.81;;;24.59;68.20
70833;BME280;58452;59.418;17.962;2022-08-19T07:45:08;101240.69;;;24.64;68.50
70833;BME280;58452;59.418;17.962;2022-08-19T07:47:33;101232.91;;;24.69;68.23
70833;BME280;58452;59.418;17.962;2022-08-19T07:49:59;101235.09;;;24.72;67.83
70833;BME280;58452;59.418;17.962;2022-08-19T07:52:24;101232.47;;;24.72;68.21
70833;BME280;58452;59.418;17.962;2022-08-19T07:54:50;101226.94;;;24.73;68.38
70833;BME280;58452;59.418;17.962;2022-08-19T07:57:16;101235.81;;;24.79;68.01
70833;BME280;58452;59.418;17.962;2022-08-19T07:59:42;101227.03;;;24.85;67.78
70833;BME280;58452;59.418;17.962;2022-08-19T08:02:08;101224.75;;;24.89;67.53
70833;BME280;58452;59.418;17.962;2022-08-19T08:04:34;101227.91;;;24.97;67.56
70833;BME280;58452;59.418;17.962;2022-08-19T08:07:18;101225.50;;;25.07;67.14
70833;BME280;58452;59.418;17.962;2022-08-19T08:10:04;101221.88;;;25.20;66.63
70833;BME280;58452;59.418;17.962;2022-08-19T08:12:34;101230.72;;;25.25;64.93
70833;BME280;58452;59.418;17.962;2022-08-19T08:15:05;101236.25;;;25.36;65.08
70833;BME280;58452;59.418;17.962;2022-08-19T08:17:33;101231.47;;;25.44;64.57
70833;BME280;58452;59.418;17.962;2022-08-19T08:19:58;101231.97;;;25.53;64.26
70833;BME280;58452;59.418;17.962;2022-08-19T08:22:24;101232.09;;;25.58;63.95
70833;BME280;58452;59.418;17.962;2022-08-19T08:25:12;101226.34;;;25.72;63.42
70833;BME280;58452;59.418;17.962;2022-08-19T08:27:39;101230.63;;;25.73;63.33
70833;BME280;58452;59.418;17.962;2022-08-19T08:30:11;101228.44;;;25.82;61.78
70833;BME280;58452;59.418;17.962;2022-08-19T08:32:40;101217.53;;;25.90;63.09
70833;BME280;58452;59.418;17.962;2022-08-19T08:35:09;101209.22;;;25.98;63.22
70833;BME280;58452;59.418;17.962;2022-08-19T08:37:34;101217.94;;;26.10;61.67
70833;BME280;58452;59.418;17.962;2022-08-19T08:45:41;101218.63;;;26.17;61.10
70833;BME280;58452;59.418;17.962;2022-08-19T08:48:30;101226.25;;;26.26;60.77
70833;BME280;58452;59.418;17.962;2022-08-19T08:51:01;101220.81;;;26.32;61.18
70833;BME280;58452;59.418;17.962;2022-08-19T08:53:30;101219.09;;;26.38;60.68
70833;BME280;58452;59.418;17.962;2022-08-19T08:55:58;101221.03;;;26.42;60.00
70833;BME280;58452;59.418;17.962;2022-08-19T08:58:33;101229.09;;;26.36;59.24
70833;BME280;58452;59.418;17.962;2022-08-19T09:01:09;101224.81;;;26.46;59.83
70833;BME280;58452;59.418;17.962;2022-08-19T09:03:37;101223.97;;;26.57;60.24
70833;BME280;58452;59.418;17.962;2022-08-19T09:06:09;101225.59;;;26.58;59.25
70833;BME280;58452;59.418;17.962;2022-08-19T09:09:03;101222.91;;;26.70;58.76
70833;BME280;58452;59.418;17.962;2022-08-19T09:11:56;101210.34;;;26.77;58.22
70833;BME280;58452;59.418;17.962;2022-08-19T09:14:36;101211.03;;;26.84;57.34
70833;BME280;58452;59.418;17.962;2022-08-19T09:17:08;101214.19;;;26.98;57.57
70833;BME280;58452;59.418;17.962;2022-08-19T09:19:35;101215.75;;;27.10;57.51
70833;BME280;58452;59.418;17.962;2022-08-19T09:22:11;101205.84;;;27.23;57.01
70833;BME280;58452;59.418;17.962;2022-08-19T09:24:37;101193.19;;;27.25;57.24
70833;BME280;58452;59.418;17.962;2022-08-19T09:27:03;101205.56;;;27.36;55.14
70833;BME280;58452;59.418;17.962;2022-08-19T09:29:29;101207.69;;;27.50;54.69
70833;BME280;58452;59.418;17.962;2022-08-19T09:31:55;101202.28;;;27.62;54.94
70833;BME280;58452;59.418;17.962;2022-08-19T09:34:20;101203.47;;;27.71;55.52
70833;BME280;58452;59.418;17.962;2022-08-19T09:36:46;101210.53;;;27.82;55.07
70833;BME280;58452;59.418;17.962;2022-08-19T09:39:12;101212.03;;;27.95;53.79
70833;BME280;58452;59.418;17.962;2022-08-19T09:41:37;101215.06;;;28.03;52.25
70833;BME280;58452;59.418;17.962;2022-08-19T09:44:02;101216.22;;;28.07;53.02
70833;BME280;58452;59.418;17.962;2022-08-19T09:46:29;101216.28;;;28.12;52.97
70833;BME280;58452;59.418;17.962;2022-08-19T09:48:58;101206.91;;;28.27;52.77
70833;BME280;58452;59.418;17.962;2022-08-19T09:51:25;101201.72;;;28.37;53.50
70833;BME280;58452;59.418;17.962;2022-08-19T09:53:53;101202.31;;;28.44;53.00
70833;BME280;58452;59.418;17.962;2022-08-19T09:56:20;101204.03;;;28.55;52.23
70833;BME280;58452;59.418;17.962;2022-08-19T09:58:46;101207.88;;;28.64;52.52
70833;BME280;58452;59.418;17.962;2022-08-19T10:01:17;101196.34;;;28.53;51.97
70833;BME280;58452;59.418;17.962;2022-08-19T10:03:43;101199.91;;;28.64;52.25
70833;BME280;58452;59.418;17.962;2022-08-19T10:06:08;101187.63;;;28.80;52.12
70833;BME280;58452;59.418;17.962;2022-08-19T10:08:36;101191.47;;;28.94;51.79
70833;BME280;58452;59.418;17.962;2022-08-19T10:11:03;101187.56;;;29.01;51.67
70833;BME280;58452;59.418;17.962;2022-08-19T10:13:32;101194.56;;;29.13;50.45
70833;BME280;58452;59.418;17.962;2022-08-19T10:16:10;101188.53;;;29.22;51.34
70833;BME280;58452;59.418;17.962;2022-08-19T10:18:36;101184.53;;;29.25;50.74
70833;BME280;58452;59.418;17.962;2022-08-19T10:21:32;101178.31;;;29.41;50.71
70833;BME280;58452;59.418;17.962;2022-08-19T10:24:00;101174.13;;;29.50;49.77
70833;BME280;58452;59.418;17.962;2022-08-19T10:26:29;101189.09;;;29.61;48.91
70833;BME280;58452;59.418;17.962;2022-08-19T10:28:56;101180.91;;;29.68;48.29
70833;BME280;58452;59.418;17.962;2022-08-19T10:31:24;101180.16;;;29.77;48.58
70833;BME280;58452;59.418;17.962;2022-08-19T10:33:51;101181.84;;;29.88;49.05
70833;BME280;58452;59.418;17.962;2022-08-19T10:36:30;101181.88;;;29.93;47.08
70833;BME280;58452;59.418;17.962;2022-08-19T10:38:58;101173.38;;;30.01;48.51
70833;BME280;58452;59.418;17.962;2022-08-19T10:41:32;101177.69;;;30.08;48.48
70833;BME280;58452;59.418;17.962;2022-08-19T10:44:01;101174.25;;;30.17;46.48
70833;BME280;58452;59.418;17.962;2022-08-19T10:46:28;101168.16;;;30.27;47.24
70833;BME280;58452;59.418;17.962;2022-08-19T10:48:56;101170.59;;;30.33;47.70
70833;BME280;58452;59.418;17.962;2022-08-19T10:51:22;101162.59;;;30.38;47.15
70833;BME280;58452;59.418;17.962;2022-08-19T10:54:06;101169.28;;;30.41;47.40
70833;BME280;58452;59.418;17.962;2022-08-19T10:56:32;101173.56;;;30.47;47.13
70833;BME280;58452;59.418;17.962;2022-08-19T10:59:19;101169.84;;;30.48;47.31
70833;BME280;58452;59.418;17.962;2022-08-19T11:01:45;101170.41;;;30.55;46.91
70833;BME280;58452;59.418;17.962;2022-08-19T11:04:12;101162.94;;;30.57;46.33
70833;BME280;58452;59.418;17.962;2022-08-19T11:06:39;101162.41;;;30.60;46.25
70833;BME280;58452;59.418;17.962;2022-08-19T11:09:06;101157.88;;;30.61;47.42
70833;BME280;58452;59.418;17.962;2022-08-19T11:11:31;101162.69;;;30.59;45.91
70833;BME280;58452;59.418;17.962;2022-08-19T11:14:15;101151.75;;;30.60;46.40
70833;BME280;58452;59.418;17.962;2022-08-19T11:16:42;101160.81;;;30.59;46.09
70833;BME280;58452;59.418;17.962;2022-08-19T11:19:09;101151.75;;;30.60;47.48
70833;BME280;58452;59.418;17.962;2022-08-19T11:21:39;101158.19;;;30.74;47.90
70833;BME280;58452;59.418;17.962;2022-08-19T11:24:10;101157.09;;;30.90;46.54
70833;BME280;58452;59.418;17.962;2022-08-19T11:26:38;101151.28;;;31.04;46.04
70833;BME280;58452;59.418;17.962;2022-08-19T11:29:05;101141.69;;;31.18;45.51
70833;BME280;58452;59.418;17.962;2022-08-19T11:31:34;101147.28;;;31.16;44.61
70833;BME280;58452;59.418;17.962;2022-08-19T11:34:03;101145.94;;;31.24;45.09
70833;BME280;58452;59.418;17.962;2022-08-19T11:36:30;101147.25;;;31.26;45.19
70833;BME280;58452;59.418;17.962;2022-08-19T11:38:57;101147.00;;;31.33;45.31
70833;BME280;58452;59.418;17.962;2022-08-19T11:41:24;101136.84;;;31.35;45.60
70833;BME280;58452;59.418;17.962;2022-08-19T11:43:51;101139.78;;;31.38;44.54
70833;BME280;58452;59.418;17.962;2022-08-19T11:46:18;101141.38;;;31.34;45.10
70833;BME280;58452;59.418;17.962;2022-08-19T11:48:44;101142.16;;;31.45;44.76
70833;BME280;58452;59.418;17.962;2022-08-19T11:51:12;101144.81;;;31.60;45.95
70833;BME280;58452;59.418;17.962;2022-08-19T11:53:38;101138.38;;;31.71;43.00
70833;BME280;58452;59.418;17.962;2022-08-19T11:56:05;101138.34;;;31.86;43.50
70833;BME280;58452;59.418;17.962;2022-08-19T11:58:31;101137.72;;;32.05;44.11
70833;BME280;58452;59.418;17.962;2022-08-19T12:00:56;101145.94;;;32.23;43.56
70833;BME280;58452;59.418;17.962;2022-08-19T12:03:22;101138.41;;;32.35;42.36
70833;BME280;58452;59.418;17.962;2022-08-19T12:05:48;101135.59;;;32.56;41.85
70833;BME280;58452;59.418;17.962;2022-08-19T12:08:15;101133.06;;;32.74;42.30
70833;BME280;58452;59.418;17.962;2022-08-19T12:10:41;101136.19;;;32.86;40.41
70833;BME280;58452;59.418;17.962;2022-08-19T12:13:08;101134.50;;;32.96;40.78
70833;BME280;58452;59.418;17.962;2022-08-19T12:15:38;101129.09;;;33.06;41.04
70833;BME280;58452;59.418;17.962;2022-08-19T12:18:06;101135.97;;;33.17;40.95
70833;BME280;58452;59.418;17.962;2022-08-19T12:20:37;101116.84;;;33.28;40.15
70833;BME280;58452;59.418;17.962;2022-08-19T12:23:04;101128.22;;;33.39;39.22
70833;BME280;58452;59.418;17.962;2022-08-19T12:25:30;101130.19;;;33.57;39.64
70833;BME280;58452;59.418;17.962;2022-08-19T12:27:57;101133.28;;;33.69;38.81
70833;BME280;58452;59.418;17.962;2022-08-19T12:30:23;101136.34;;;33.81;38.47
70833;BME280;58452;59.418;17.962;2022-08-19T12:32:48;101123.78;;;34.01;38.33
70833;BME280;58452;59.418;17.962;2022-08-19T12:35:13;101135.91;;;34.17;38.89
70833;BME280;58452;59.418;17.962;2022-08-19T12:37:39;101136.28;;;34.29;37.31
70833;BME280;58452;59.418;17.962;2022-08-19T12:40:10;101134.09;;;34.31;35.73
70833;BME280;58452;59.418;17.962;2022-08-19T12:42:37;101127.00;;;34.21;36.62
70833;BME280;58452;59.418;17.962;2022-08-19T12:45:11;101122.16;;;34.23;37.88
70833;BME280;58452;59.418;17.962;2022-08-19T12:47:37;101122.81;;;34.34;37.29
70833;BME280;58452;59.418;17.962;2022-08-19T12:50:03;101121.59;;;34.45;37.63
70833;BME280;58452;59.418;17.962;2022-08-19T12:52:29;101129.47;;;34.55;37.25
70833;BME280;58452;59.418;17.962;2022-08-19T12:54:55;101126.38;;;34.67;35.81